Afton, Tennessee
Current Conditions -  °F | °C
As of 9:16 AM on Friday 31 Oct 2014 (Local Time) from KTRI Reporting Station
Haze Haze  
Wind Chill: 37°   Ceiling: 12000
Heat Index: 37°   Visibility: 1mi
Dew Point: 37°   Wind: 0mph
Humidity: 100%   Direction: NA
Pressure: 29.98"   Gusts: NA
Location:  36.19°N, 82.74°W
Report Text: KTRI 311316Z 00000KT 1SM BR SCT001 OVC120 03/03 A2998 RMK AO2 T00280028
Loading
Personal Weather Stations






























Interactive Weather Map
Tropical Storm Tracking
New forecast layout! Learn more

10-Day Weather Forecast

Advertisements
Track Severe Weather on mobile